Time;durP1;ratioP1;P1;durP2;ratioP2;P2;SDS_P1;SDS_P2;PMS_P1;PMS_P2;Temp;Humidity;BMP_temperature;BMP_pressure;BME280_temperature;BME280_humidity;BME280_pressure;Samples;Min_cycle;Max_cycle;Signal;HPM_P1;HPM_P2
2023/01/26 00:00:07;;;;;;;3.93;3.73;;;2.60;99.90;;;;;;5060446;28;20214;-68
2023/01/26 00:02:34;;;;;;;3.90;3.70;;;2.60;99.90;;;;;;5063635;28;20231;-70
2023/01/26 00:05:01;;;;;;;4.23;4.03;;;2.60;99.90;;;;;;5065931;28;20207;-67
2023/01/26 00:07:29;;;;;;;4.57;4.27;;;2.70;99.90;;;;;;5059939;28;20628;-70
2023/01/26 00:09:55;;;;;;;4.20;3.93;;;2.70;99.90;;;;;;5060763;28;20282;-68
2023/01/26 00:12:22;;;;;;;4.57;4.27;;;2.70;99.90;;;;;;5062463;28;20216;-65
2023/01/26 00:14:52;;;;;;;4.33;4.03;;;2.70;99.90;;;;;;5050856;28;20266;-65
2023/01/26 00:17:27;;;;;;;4.73;4.43;;;2.80;99.90;;;;;;5050384;28;20602;-69
2023/01/26 00:19:56;;;;;;;4.33;4.13;;;2.80;99.90;;;;;;5054675;28;20314;-66
2023/01/26 00:22:24;;;;;;;4.83;4.53;;;2.80;99.90;;;;;;5057505;28;20234;-65
2023/01/26 00:24:51;;;;;;;4.70;4.40;;;2.90;99.90;;;;;;5056338;28;20204;-72
2023/01/26 00:27:17;;;;;;;4.07;3.87;;;2.90;99.90;;;;;;5053473;28;20200;-66
2023/01/26 00:29:44;;;;;;;4.70;4.40;;;2.90;99.90;;;;;;5051081;28;20200;-67
2023/01/26 00:32:11;;;;;;;4.13;3.93;;;2.90;99.90;;;;;;5050090;28;20223;-66
2023/01/26 00:34:39;;;;;;;3.90;3.70;;;2.90;99.90;;;;;;5050151;28;20207;-65
2023/01/26 00:37:06;;;;;;;4.57;4.27;;;2.90;99.90;;;;;;5049940;28;20207;-63
2023/01/26 00:39:33;;;;;;;4.50;4.23;;;2.90;99.90;;;;;;5051248;28;20228;-64
2023/01/26 00:42:12;;;;;;;4.73;4.37;;;2.90;99.90;;;;;;5050931;28;20247;-65
2023/01/26 00:44:41;;;;;;;4.97;4.67;;;2.90;99.90;;;;;;5051805;28;20199;-68
2023/01/26 00:47:09;;;;;;;4.70;4.40;;;2.80;99.90;;;;;;5051225;28;20208;-67
2023/01/26 00:49:36;;;;;;;4.57;4.27;;;2.70;99.90;;;;;;5050886;28;20203;-66
2023/01/26 00:52:05;;;;;;;4.33;4.07;;;2.70;99.90;;;;;;5050936;28;20709;-66
2023/01/26 00:54:32;;;;;;;4.17;3.97;;;2.80;99.90;;;;;;5051892;28;20211;-66
2023/01/26 00:56:59;;;;;;;4.43;4.23;;;2.80;99.90;;;;;;5051508;28;20239;-65
2023/01/26 00:59:26;;;;;;;4.20;4.00;;;2.90;99.90;;;;;;5051994;28;20226;-69
2023/01/26 01:01:53;;;;;;;4.43;4.13;;;2.90;99.90;;;;;;5054633;28;20617;-66
2023/01/26 01:04:20;;;;;;;4.83;4.53;;;2.90;99.90;;;;;;5054682;28;20269;-66
2023/01/26 01:06:47;;;;;;;4.33;4.03;;;2.80;99.90;;;;;;5054452;28;20203;-65
2023/01/26 01:09:15;;;;;;;5.30;4.90;;;2.80;99.90;;;;;;5056286;28;20204;-65
2023/01/26 01:11:42;;;;;;;4.50;4.20;;;2.80;99.90;;;;;;5060913;28;20314;-65
2023/01/26 01:14:09;;;;;;;4.00;3.80;;;2.80;99.90;;;;;;5064096;28;20203;-69
2023/01/26 01:16:36;;;;;;;4.27;4.03;;;2.80;99.90;;;;;;5063452;28;20204;-68
2023/01/26 01:19:03;;;;;;;4.23;4.03;;;2.70;99.90;;;;;;5057808;28;20600;-67
2023/01/26 01:21:31;;;;;;;5.00;4.60;;;2.70;99.90;;;;;;5058550;28;20235;-67
2023/01/26 01:23:58;;;;;;;4.40;4.10;;;2.70;99.90;;;;;;5059710;28;20208;-65
2023/01/26 01:26:27;;;;;;;4.57;4.33;;;2.80;99.90;;;;;;5061155;28;20295;-66
2023/01/26 01:28:56;;;;;;;4.80;4.50;;;2.80;99.90;;;;;;5061292;28;20211;-69
2023/01/26 01:31:24;;;;;;;4.83;4.53;;;2.80;99.90;;;;;;5063847;28;20246;-69
2023/01/26 01:33:52;;;;;;;4.83;4.53;;;2.70;99.90;;;;;;5054680;28;20216;-66
2023/01/26 01:36:19;;;;;;;4.43;4.23;;;2.70;99.90;;;;;;5052991;28;20211;-66
2023/01/26 01:38:47;;;;;;;4.00;3.80;;;2.70;99.90;;;;;;5052640;28;20246;-66
2023/01/26 01:41:15;;;;;;;4.90;4.60;;;2.70;99.90;;;;;;5053676;28;20227;-66
2023/01/26 01:43:43;;;;;;;4.60;4.30;;;2.70;99.90;;;;;;5054451;28;20211;-65
2023/01/26 01:46:17;;;;;;;4.70;4.40;;;2.70;99.90;;;;;;5053688;28;20214;-67
2023/01/26 01:48:51;;;;;;;4.87;4.57;;;2.70;99.90;;;;;;5054235;28;20199;-65
2023/01/26 01:51:26;;;;;;;4.27;3.90;;;2.70;99.90;;;;;;5053717;28;20224;-67
2023/01/26 01:53:54;;;;;;;4.00;3.80;;;2.80;99.90;;;;;;5052219;28;20211;-66
2023/01/26 01:56:24;;;;;;;4.70;4.40;;;2.80;99.90;;;;;;5051938;28;20670;-67
2023/01/26 01:58:56;;;;;;;4.77;4.47;;;2.90;99.90;;;;;;5052378;28;20891;-67
2023/01/26 02:01:24;;;;;;;4.37;4.17;;;2.80;99.90;;;;;;5052229;28;20612;-67
2023/01/26 02:03:54;;;;;;;4.67;4.33;;;2.90;99.90;;;;;;5052424;28;20211;-65
2023/01/26 02:06:26;;;;;;;4.60;4.30;;;2.90;99.90;;;;;;5052490;28;20227;-65
2023/01/26 02:08:55;;;;;;;4.30;4.00;;;2.90;99.90;;;;;;5058105;28;20203;-64
2023/01/26 02:11:25;;;;;;;4.23;4.00;;;2.80;99.90;;;;;;5052668;28;20698;-64
2023/01/26 02:13:56;;;;;;;4.30;4.07;;;2.80;99.90;;;;;;5053470;28;20192;-68
2023/01/26 02:16:23;;;;;;;4.00;3.80;;;2.90;99.90;;;;;;5052316;28;20218;-67
2023/01/26 02:18:50;;;;;;;4.40;4.10;;;2.90;99.90;;;;;;5052184;28;20227;-65
2023/01/26 02:21:19;;;;;;;4.83;4.53;;;2.80;99.90;;;;;;5051945;28;20227;-65
2023/01/26 02:23:56;;;;;;;4.90;4.60;;;2.80;99.90;;;;;;5053607;28;20211;-67
2023/01/26 02:26:26;;;;;;;4.77;4.50;;;2.80;99.90;;;;;;5052534;28;20203;-66
2023/01/26 02:28:53;;;;;;;4.47;4.23;;;2.80;99.90;;;;;;5051868;28;20208;-68
2023/01/26 02:31:22;;;;;;;5.00;4.70;;;2.80;99.90;;;;;;5051501;28;20228;-65
2023/01/26 02:33:48;;;;;;;4.47;4.20;;;2.70;99.90;;;;;;5052371;28;20670;-66
2023/01/26 02:36:19;;;;;;;4.80;4.50;;;2.70;99.90;;;;;;5051350;28;20675;-66
2023/01/26 02:38:53;;;;;;;5.20;4.83;;;2.70;99.90;;;;;;5049391;28;20323;-65
2023/01/26 02:44:03;;;;;;;4.80;4.50;;;2.60;99.90;;;;;;5059704;28;20269;-68
2023/01/26 02:46:30;;;;;;;4.60;4.30;;;2.50;99.90;;;;;;5051716;28;20210;-66
2023/01/26 02:51:41;;;;;;;5.50;5.20;;;2.50;99.90;;;;;;5051333;28;20297;-66
2023/01/26 02:54:08;;;;;;;5.07;4.77;;;2.50;99.90;;;;;;5051375;28;20204;-65
2023/01/26 02:56:38;;;;;;;4.67;4.37;;;2.50;99.90;;;;;;5051474;28;20292;-65
2023/01/26 02:59:06;;;;;;;5.10;4.80;;;2.50;99.90;;;;;;5052275;28;20972;-64
2023/01/26 03:01:33;;;;;;;5.40;5.00;;;2.40;99.90;;;;;;5051969;28;20234;-64
2023/01/26 03:04:00;;;;;;;5.30;5.00;;;2.50;99.90;;;;;;5052583;28;20666;-64
2023/01/26 03:06:26;;;;;;;5.20;4.90;;;2.40;99.90;;;;;;5065182;28;20246;-67
2023/01/26 03:08:53;;;;;;;5.33;5.03;;;2.40;99.90;;;;;;5051382;28;20204;-66
2023/01/26 03:11:20;;;;;;;5.03;4.73;;;2.40;99.90;;;;;;5050817;28;20228;-66
2023/01/26 03:13:47;;;;;;;5.33;4.97;;;2.40;99.90;;;;;;5050599;28;20211;-66
2023/01/26 03:16:17;;;;;;;4.83;4.53;;;2.30;99.90;;;;;;5049939;28;20852;-68
2023/01/26 03:29:38;;;;;;;5.53;5.17;;;2.30;99.90;;;;;;5037267;28;20190;-65
2023/01/26 03:32:07;;;;;;;5.07;4.77;;;2.40;99.90;;;;;;5050370;28;20227;-64
2023/01/26 03:34:34;;;;;;;5.20;4.90;;;2.40;99.90;;;;;;5050015;28;20208;-65
2023/01/26 03:37:01;;;;;;;5.37;5.07;;;2.30;99.90;;;;;;5053951;28;20601;-67
2023/01/26 03:56:20;;;;;;;5.37;4.97;;;2.10;99.90;;;;;;5052555;28;20202;-66
2023/01/26 03:58:49;;;;;;;5.00;4.70;;;2.10;99.90;;;;;;5050788;28;20258;-65
2023/01/26 04:01:18;;;;;;;5.10;4.80;;;2.20;99.90;;;;;;5050151;28;20229;-66
2023/01/26 04:09:17;;;;;;;4.93;4.53;;;2.40;99.90;;;;;;5050327;28;20203;-66
2023/01/26 04:11:44;;;;;;;5.40;5.00;;;2.30;99.90;;;;;;5049255;28;20227;-65
2023/01/26 04:22:27;;;;;;;4.40;4.20;;;2.40;99.90;;;;;;5051904;28;20235;-66
2023/01/26 04:24:55;;;;;;;5.53;5.23;;;2.30;99.90;;;;;;5051653;28;20244;-66
2023/01/26 04:27:23;;;;;;;5.07;4.77;;;2.20;99.90;;;;;;5052555;28;20200;-63
2023/01/26 04:29:50;;;;;;;5.20;4.90;;;2.30;99.90;;;;;;5052573;28;20210;-66
2023/01/26 04:32:16;;;;;;;4.80;4.50;;;2.20;99.90;;;;;;5054532;28;20258;-66
2023/01/26 04:34:44;;;;;;;4.50;4.20;;;2.20;99.90;;;;;;5060941;28;20298;-66
2023/01/26 04:37:11;;;;;;;4.97;4.67;;;2.30;99.90;;;;;;5056003;28;20207;-66
2023/01/26 04:39:38;;;;;;;5.73;5.33;;;2.30;99.90;;;;;;5055545;28;20238;-65
2023/01/26 04:42:05;;;;;;;5.20;4.83;;;2.30;99.90;;;;;;5055372;28;20230;-66
2023/01/26 04:44:32;;;;;;;4.90;4.70;;;2.30;99.90;;;;;;5057015;28;20211;-66
2023/01/26 04:46:59;;;;;;;5.60;5.20;;;2.30;99.90;;;;;;5056973;28;20298;-64
2023/01/26 04:49:25;;;;;;;5.07;4.77;;;2.30;99.90;;;;;;5055661;28;20200;-66
2023/01/26 04:51:54;;;;;;;5.30;5.00;;;2.20;99.90;;;;;;5054260;28;20234;-65
2023/01/26 04:54:20;;;;;;;4.80;4.50;;;2.20;99.90;;;;;;5054802;28;20207;-65
2023/01/26 04:56:47;;;;;;;4.40;4.20;;;2.10;99.90;;;;;;5054553;28;20203;-65
2023/01/26 04:59:14;;;;;;;5.13;4.83;;;2.00;99.90;;;;;;5054633;28;20220;-69
2023/01/26 05:01:41;;;;;;;5.40;5.00;;;1.90;99.90;;;;;;5054842;28;20305;-67
2023/01/26 05:04:10;;;;;;;4.90;4.60;;;1.90;99.90;;;;;;5054596;28;20212;-65
2023/01/26 05:06:37;;;;;;;4.53;4.27;;;1.90;99.90;;;;;;5054270;28;20207;-65
2023/01/26 05:09:06;;;;;;;4.80;4.50;;;1.90;99.90;;;;;;5054776;28;20203;-65
2023/01/26 05:11:32;;;;;;;3.93;3.73;;;1.90;99.90;;;;;;5054021;28;20228;-66
2023/01/26 05:13:59;;;;;;;4.50;4.10;;;1.90;99.90;;;;;;5054788;28;20226;-67
2023/01/26 05:16:26;;;;;;;4.33;4.13;;;2.00;99.90;;;;;;5055910;28;20619;-67
2023/01/26 05:18:54;;;;;;;5.20;4.80;;;2.10;99.90;;;;;;5054072;28;20773;-67
2023/01/26 05:21:23;;;;;;;4.10;3.90;;;2.10;99.90;;;;;;5053830;28;20242;-66
2023/01/26 05:23:50;;;;;;;4.63;4.33;;;2.00;99.90;;;;;;5054018;28;20694;-65
2023/01/26 05:26:18;;;;;;;4.40;4.10;;;1.90;99.90;;;;;;5053702;28;20226;-67
2023/01/26 05:28:45;;;;;;;4.30;4.00;;;1.80;99.90;;;;;;5054076;28;20663;-67
2023/01/26 05:31:12;;;;;;;4.80;4.50;;;1.80;99.90;;;;;;5054398;28;20238;-67
2023/01/26 05:33:39;;;;;;;4.70;4.40;;;1.90;99.90;;;;;;5053987;28;20208;-66
2023/01/26 05:36:07;;;;;;;4.43;4.13;;;1.80;99.90;;;;;;5053740;28;20208;-67
2023/01/26 05:38:34;;;;;;;4.10;3.90;;;1.80;99.90;;;;;;5058038;28;20210;-67
2023/01/26 05:41:01;;;;;;;4.50;4.17;;;1.90;99.90;;;;;;5071049;28;20232;-65
2023/01/26 05:43:29;;;;;;;4.67;4.47;;;1.90;99.90;;;;;;5059171;28;20230;-65
2023/01/26 05:45:56;;;;;;;4.57;4.27;;;1.90;99.90;;;;;;5053039;28;20578;-66
2023/01/26 05:48:23;;;;;;;5.07;4.67;;;1.90;99.90;;;;;;5053805;28;20200;-67
2023/01/26 05:50:50;;;;;;;4.87;4.57;;;2.00;99.90;;;;;;5053314;28;20251;-65
2023/01/26 05:53:16;;;;;;;4.93;4.63;;;1.90;99.90;;;;;;5053461;28;20247;-65
2023/01/26 05:55:44;;;;;;;4.20;3.90;;;2.00;99.90;;;;;;5053391;28;20224;-66
2023/01/26 05:58:10;;;;;;;3.80;3.60;;;2.00;99.90;;;;;;5053596;28;20208;-65
2023/01/26 06:00:39;;;;;;;4.10;3.90;;;1.90;99.90;;;;;;5052801;28;20238;-66
2023/01/26 06:03:05;;;;;;;4.30;4.00;;;1.90;99.90;;;;;;5053399;28;20630;-67
2023/01/26 06:05:32;;;;;;;4.47;4.20;;;2.00;99.90;;;;;;5053114;28;20215;-67
2023/01/26 06:07:59;;;;;;;4.30;4.00;;;2.00;99.90;;;;;;5059094;28;20235;-66
2023/01/26 06:10:26;;;;;;;4.37;4.07;;;1.80;99.90;;;;;;5056121;28;20659;-68
2023/01/26 06:12:53;;;;;;;4.40;4.10;;;1.90;99.90;;;;;;5052870;28;20228;-65
2023/01/26 06:15:19;;;;;;;3.87;3.67;;;2.00;99.90;;;;;;5053073;28;20208;-65
2023/01/26 06:17:48;;;;;;;4.37;4.10;;;2.00;99.90;;;;;;5053491;28;20251;-65
2023/01/26 06:20:15;;;;;;;4.43;4.13;;;2.00;99.90;;;;;;5052933;28;20318;-65
2023/01/26 06:22:41;;;;;;;5.10;4.80;;;2.00;99.90;;;;;;5051691;28;20239;-63
2023/01/26 06:25:09;;;;;;;4.27;4.07;;;2.00;99.90;;;;;;5052634;28;20214;-66
2023/01/26 06:27:35;;;;;;;4.07;3.87;;;2.00;99.90;;;;;;5053343;28;20200;-67
2023/01/26 06:30:04;;;;;;;4.67;4.37;;;2.00;99.90;;;;;;5052927;28;20349;-66
2023/01/26 06:32:31;;;;;;;4.00;3.73;;;2.10;99.90;;;;;;5052654;28;20232;-65
2023/01/26 06:34:59;;;;;;;4.50;4.17;;;2.10;99.90;;;;;;5052429;28;20199;-65
2023/01/26 06:37:25;;;;;;;4.10;3.90;;;2.10;99.90;;;;;;5053073;28;20225;-68
2023/01/26 06:39:52;;;;;;;4.30;4.00;;;2.00;99.90;;;;;;5052693;28;20232;-66
2023/01/26 06:42:19;;;;;;;3.90;3.70;;;2.10;99.90;;;;;;5052456;28;20232;-65
2023/01/26 06:44:46;;;;;;;4.00;3.80;;;2.20;99.90;;;;;;5052536;28;20729;-64
2023/01/26 06:47:13;;;;;;;4.00;3.70;;;2.20;99.90;;;;;;5052493;28;20208;-65
2023/01/26 06:49:40;;;;;;;4.00;3.70;;;2.10;99.90;;;;;;5052537;28;20216;-66
2023/01/26 06:52:23;;;;;;;4.07;3.87;;;2.00;99.90;;;;;;5052020;28;20220;-66
2023/01/26 06:54:51;;;;;;;4.17;3.97;;;2.10;99.90;;;;;;5052421;28;20223;-66
2023/01/26 06:57:18;;;;;;;3.83;3.63;;;2.10;99.90;;;;;;5052181;28;20239;-66
2023/01/26 06:59:45;;;;;;;4.20;3.90;;;2.10;99.90;;;;;;5052216;28;20212;-65
2023/01/26 07:02:17;;;;;;;4.33;4.03;;;2.10;99.90;;;;;;5052107;28;20318;-67
2023/01/26 07:04:44;;;;;;;4.10;3.83;;;2.10;99.90;;;;;;5051968;28;20210;-65
2023/01/26 07:07:11;;;;;;;4.10;3.80;;;2.10;99.90;;;;;;5052063;28;20204;-67
2023/01/26 07:09:39;;;;;;;4.17;3.93;;;2.10;99.90;;;;;;5052010;28;20204;-66
2023/01/26 07:12:07;;;;;;;4.67;4.37;;;2.10;99.90;;;;;;5052361;28;20240;-66
2023/01/26 07:14:33;;;;;;;4.07;3.77;;;2.10;99.90;;;;;;5052201;28;20302;-67
2023/01/26 07:17:01;;;;;;;4.00;3.80;;;2.20;99.90;;;;;;5052163;28;20310;-66
2023/01/26 07:19:29;;;;;;;4.47;4.17;;;2.10;99.90;;;;;;5052371;28;20605;-65
2023/01/26 07:21:56;;;;;;;4.30;4.00;;;2.00;99.90;;;;;;5052824;28;20255;-67
2023/01/26 07:24:22;;;;;;;4.17;3.97;;;2.00;99.90;;;;;;5054094;28;20603;-66
2023/01/26 07:26:51;;;;;;;4.10;3.90;;;2.00;99.90;;;;;;5066526;28;20235;-67
2023/01/26 07:29:18;;;;;;;4.23;4.03;;;2.00;99.90;;;;;;5063193;28;20290;-69
2023/01/26 07:31:45;;;;;;;4.50;4.20;;;1.90;99.90;;;;;;5059466;28;20566;-67
2023/01/26 07:34:12;;;;;;;4.20;3.97;;;1.90;99.90;;;;;;5054938;28;20650;-65
2023/01/26 07:36:39;;;;;;;4.23;4.00;;;2.00;99.90;;;;;;5054225;28;20204;-65
2023/01/26 07:39:06;;;;;;;4.33;4.03;;;1.90;99.90;;;;;;5055408;28;20526;-65
2023/01/26 07:41:33;;;;;;;4.50;4.20;;;1.70;99.90;;;;;;5052878;28;20232;-67
2023/01/26 07:44:01;;;;;;;5.17;4.87;;;1.70;99.90;;;;;;5052521;28;20581;-67
2023/01/26 07:46:27;;;;;;;4.63;4.23;;;1.80;99.90;;;;;;5052131;28;20209;-66
2023/01/26 07:48:55;;;;;;;5.27;4.97;;;1.70;99.90;;;;;;5066357;28;20204;-64
2023/01/26 07:51:22;;;;;;;4.77;4.47;;;1.70;99.90;;;;;;5058653;28;20734;-64
2023/01/26 07:53:49;;;;;;;5.03;4.73;;;1.70;99.90;;;;;;5054150;28;20208;-66
2023/01/26 07:56:18;;;;;;;5.00;4.70;;;1.80;99.90;;;;;;5051342;28;20207;-65
2023/01/26 07:58:49;;;;;;;4.77;4.47;;;1.90;99.90;;;;;;5052570;28;20200;-66
2023/01/26 08:01:17;;;;;;;5.10;4.80;;;1.90;99.90;;;;;;5053367;28;20232;-65
2023/01/26 08:03:45;;;;;;;5.23;4.83;;;1.80;99.90;;;;;;5053430;28;20219;-65
2023/01/26 08:06:13;;;;;;;4.97;4.67;;;1.90;99.90;;;;;;5052760;28;20602;-65
2023/01/26 08:08:40;;;;;;;4.80;4.50;;;1.90;99.90;;;;;;5052397;28;20257;-67
2023/01/26 08:11:08;;;;;;;4.60;4.37;;;1.90;99.90;;;;;;5053714;28;20227;-66
2023/01/26 08:13:35;;;;;;;5.60;5.20;;;2.00;99.90;;;;;;5052670;28;20210;-65
2023/01/26 08:16:03;;;;;;;5.23;4.93;;;2.10;99.90;;;;;;5051466;28;20200;-68
2023/01/26 08:18:31;;;;;;;5.17;4.87;;;2.10;99.90;;;;;;5051173;28;20567;-68
2023/01/26 08:20:59;;;;;;;4.87;4.57;;;2.10;99.90;;;;;;5051091;28;20662;-65
2023/01/26 08:23:27;;;;;;;5.60;5.20;;;2.10;99.90;;;;;;5050875;28;20273;-68
2023/01/26 08:25:53;;;;;;;4.80;4.50;;;2.00;99.90;;;;;;5050895;28;20211;-67
2023/01/26 08:28:21;;;;;;;5.23;4.83;;;2.00;99.90;;;;;;5051135;28;20208;-67
2023/01/26 08:30:48;;;;;;;5.53;5.23;;;2.00;99.90;;;;;;5050586;28;20350;-66
2023/01/26 08:33:14;;;;;;;5.80;5.50;;;2.10;99.90;;;;;;5050960;28;20210;-65
2023/01/26 08:35:43;;;;;;;6.00;5.60;;;2.00;99.90;;;;;;5051067;28;20304;-67
2023/01/26 08:38:09;;;;;;;5.63;5.23;;;2.00;99.90;;;;;;5050962;28;20214;-67
2023/01/26 08:40:36;;;;;;;5.90;5.50;;;1.90;99.90;;;;;;5050505;28;20226;-65
2023/01/26 08:43:03;;;;;;;5.70;5.30;;;1.90;99.90;;;;;;5050841;28;20211;-66
2023/01/26 08:45:31;;;;;;;5.73;5.33;;;1.90;99.90;;;;;;5050076;28;20208;-67
2023/01/26 08:47:58;;;;;;;5.60;5.30;;;1.90;99.90;;;;;;5050878;28;20229;-66
2023/01/26 08:50:25;;;;;;;6.47;5.97;;;2.00;99.90;;;;;;5050599;28;20204;-67
2023/01/26 08:52:56;;;;;;;5.73;5.43;;;1.90;99.90;;;;;;5050791;28;20210;-66
2023/01/26 08:55:23;;;;;;;5.87;5.57;;;1.80;99.90;;;;;;5050480;28;20431;-66
2023/01/26 08:57:53;;;;;;;5.60;5.30;;;1.90;99.90;;;;;;5050360;28;20583;-69
2023/01/26 09:00:21;;;;;;;6.00;5.60;;;2.00;99.90;;;;;;5050953;28;20212;-65
2023/01/26 09:02:48;;;;;;;6.73;6.23;;;2.10;99.90;;;;;;5050589;28;20230;-66
2023/01/26 09:05:15;;;;;;;5.53;5.23;;;2.10;99.90;;;;;;5050273;28;20792;-64
2023/01/26 09:07:43;;;;;;;6.03;5.67;;;1.90;99.90;;;;;;5050807;28;20204;-66
2023/01/26 09:10:12;;;;;;;6.20;5.80;;;1.90;99.90;;;;;;5050427;28;20622;-65
2023/01/26 09:12:38;;;;;;;6.63;6.17;;;2.00;99.90;;;;;;5052912;28;20642;-65
2023/01/26 09:15:07;;;;;;;5.87;5.47;;;2.00;99.90;;;;;;5059167;28;20290;-65
2023/01/26 09:17:34;;;;;;;5.90;5.50;;;2.00;99.90;;;;;;5058370;28;20216;-66
2023/01/26 09:20:01;;;;;;;5.80;5.50;;;2.00;99.90;;;;;;5057909;28;20214;-66
2023/01/26 09:22:28;;;;;;;5.90;5.50;;;2.10;99.90;;;;;;5055104;28;20243;-67
2023/01/26 09:24:55;;;;;;;6.03;5.63;;;2.10;99.90;;;;;;5054178;28;20554;-67
2023/01/26 09:27:23;;;;;;;6.00;5.53;;;2.10;99.90;;;;;;5054667;28;20214;-66
2023/01/26 09:29:51;;;;;;;6.10;5.70;;;2.20;99.90;;;;;;5054189;28;20725;-67
2023/01/26 09:32:18;;;;;;;6.50;6.10;;;2.20;99.90;;;;;;5060264;28;20246;-66
2023/01/26 09:34:45;;;;;;;6.13;5.73;;;2.10;99.90;;;;;;5055936;28;20200;-64
2023/01/26 09:37:11;;;;;;;6.40;6.00;;;2.00;99.90;;;;;;5054158;28;20208;-66
2023/01/26 09:39:38;;;;;;;6.27;5.83;;;2.00;99.90;;;;;;5054589;28;20585;-64
2023/01/26 09:42:34;;;;;;;6.23;5.83;;;2.10;99.90;;;;;;5053830;28;20608;-66
2023/01/26 09:45:14;;;;;;;5.63;5.23;;;2.00;99.90;;;;;;5053092;28;20212;-66
2023/01/26 09:47:55;;;;;;;6.53;5.87;;;2.10;99.90;;;;;;5053547;28;20207;-66
2023/01/26 09:50:26;;;;;;;6.17;5.77;;;2.10;99.90;;;;;;5053619;28;20218;-66
2023/01/26 09:52:55;;;;;;;6.60;6.10;;;2.20;99.90;;;;;;5053808;28;20204;-67
2023/01/26 09:55:24;;;;;;;6.67;6.20;;;2.20;99.90;;;;;;5053201;28;20208;-66
2023/01/26 09:57:54;;;;;;;6.43;5.93;;;2.20;99.90;;;;;;5053700;28;20211;-65
2023/01/26 10:00:27;;;;;;;6.10;5.70;;;2.20;99.90;;;;;;5053319;28;20208;-65
2023/01/26 10:03:10;;;;;;;6.20;5.80;;;2.20;99.90;;;;;;5053958;28;20660;-67
2023/01/26 10:05:44;;;;;;;5.63;5.33;;;2.20;99.90;;;;;;5053222;28;20612;-66
2023/01/26 10:08:12;;;;;;;5.73;5.33;;;2.30;99.90;;;;;;5053499;28;20196;-66
2023/01/26 10:10:44;;;;;;;6.00;5.63;;;2.20;99.90;;;;;;5053190;28;20208;-67
2023/01/26 10:13:14;;;;;;;5.53;5.23;;;2.30;99.90;;;;;;5054208;28;20219;-66
2023/01/26 10:15:45;;;;;;;4.73;4.43;;;2.30;99.90;;;;;;5053371;28;20204;-66
2023/01/26 10:18:18;;;;;;;4.63;4.33;;;2.30;99.90;;;;;;5052870;28;20230;-65
2023/01/26 10:20:50;;;;;;;5.33;5.03;;;2.30;99.90;;;;;;5052786;28;20231;-68
2023/01/26 10:23:21;;;;;;;4.90;4.60;;;2.20;99.90;;;;;;5053079;28;20208;-68
2023/01/26 10:25:50;;;;;;;5.43;5.03;;;2.20;99.90;;;;;;5053457;28;20688;-66
2023/01/26 10:28:19;;;;;;;5.53;5.13;;;2.20;99.90;;;;;;5053713;28;20212;-66
2023/01/26 10:30:50;;;;;;;4.70;4.40;;;2.10;99.90;;;;;;5052438;28;20593;-65
2023/01/26 10:33:19;;;;;;;5.03;4.73;;;2.10;99.90;;;;;;5052759;28;20299;-67
2023/01/26 10:35:47;;;;;;;4.97;4.67;;;2.20;99.90;;;;;;5052372;28;20232;-66
2023/01/26 10:38:40;;;;;;;5.03;4.73;;;2.20;99.90;;;;;;5053045;28;20211;-66
2023/01/26 10:41:20;;;;;;;4.60;4.30;;;2.20;99.90;;;;;;5052666;28;20320;-66
2023/01/26 10:43:52;;;;;;;4.27;4.07;;;2.10;99.90;;;;;;5052509;28;20207;-66
2023/01/26 10:46:30;;;;;;;4.37;4.07;;;2.10;99.90;;;;;;5052187;28;20335;-67
2023/01/26 10:49:00;;;;;;;4.50;4.20;;;2.20;99.90;;;;;;5052408;28;20204;-67
2023/01/26 10:51:29;;;;;;;4.67;4.27;;;2.30;99.90;;;;;;5052257;28;20220;-69
2023/01/26 10:54:20;;;;;;;4.40;4.10;;;2.20;99.90;;;;;;5053018;28;20232;-67
2023/01/26 10:56:50;;;;;;;4.37;4.07;;;2.20;99.90;;;;;;5052171;28;20231;-67
2023/01/26 10:59:27;;;;;;;4.43;4.13;;;2.20;99.90;;;;;;5059132;28;20253;-67
2023/01/26 11:01:57;;;;;;;4.10;3.90;;;2.20;99.90;;;;;;5070376;28;20255;-66
2023/01/26 11:04:25;;;;;;;4.50;4.20;;;2.20;99.90;;;;;;5060452;28;20195;-67
2023/01/26 11:06:52;;;;;;;4.10;3.90;;;2.20;99.90;;;;;;5054525;28;20210;-67
2023/01/26 11:09:23;;;;;;;4.27;3.97;;;2.20;99.90;;;;;;5053355;28;20669;-66
2023/01/26 11:11:59;;;;;;;4.10;3.80;;;2.30;99.90;;;;;;5054556;28;20597;-65
2023/01/26 11:14:26;;;;;;;3.90;3.70;;;2.30;99.90;;;;;;5055316;28;20209;-66
2023/01/26 11:17:00;;;;;;;3.70;3.50;;;2.40;99.90;;;;;;5057044;28;20203;-67
2023/01/26 11:19:56;;;;;;;3.60;3.40;;;2.40;99.90;;;;;;5054349;28;20222;-67
2023/01/26 11:22:30;;;;;;;3.90;3.70;;;2.50;99.90;;;;;;5052028;28;20238;-66
2023/01/26 11:25:03;;;;;;;4.13;3.83;;;2.60;99.90;;;;;;5052003;28;20208;-67
2023/01/26 11:27:42;;;;;;;3.67;3.47;;;2.40;99.90;;;;;;5052780;28;20212;-67
2023/01/26 11:30:34;;;;;;;3.40;3.20;;;2.40;99.90;;;;;;5052717;28;20207;-67
2023/01/26 11:33:11;;;;;;;3.57;3.37;;;2.60;99.90;;;;;;5052640;28;20204;-65
2023/01/26 11:35:50;;;;;;;3.77;3.47;;;2.70;99.90;;;;;;5052198;28;20210;-68
2023/01/26 11:38:29;;;;;;;3.70;3.50;;;2.70;99.90;;;;;;5051881;28;20204;-67
2023/01/26 11:41:07;;;;;;;3.77;3.57;;;2.60;99.90;;;;;;5051723;28;20227;-68
2023/01/26 11:43:55;;;;;;;3.77;3.57;;;2.50;99.90;;;;;;5051098;28;20210;-66
2023/01/26 11:46:41;;;;;;;4.00;3.70;;;2.50;99.90;;;;;;5051770;28;20212;-65
2023/01/26 11:49:25;;;;;;;3.60;3.40;;;2.40;99.90;;;;;;5052594;28;20208;-67
2023/01/26 11:52:03;;;;;;;3.17;2.97;;;2.30;99.90;;;;;;5054591;28;20231;-65
2023/01/26 11:54:57;;;;;;;3.50;3.20;;;2.30;99.90;;;;;;5059152;28;20262;-65
2023/01/26 11:57:31;;;;;;;3.37;3.17;;;2.10;99.90;;;;;;5057233;28;20304;-66
2023/01/26 12:00:02;;;;;;;3.70;3.50;;;2.20;99.90;;;;;;5057225;28;20206;-66
2023/01/26 12:02:32;;;;;;;3.50;3.30;;;2.20;99.90;;;;;;5056209;28;20255;-65
2023/01/26 12:05:10;;;;;;;3.77;3.57;;;2.20;99.90;;;;;;5052996;28;20688;-67
2023/01/26 12:07:53;;;;;;;3.80;3.60;;;2.10;99.90;;;;;;5052850;28;20630;-65
2023/01/26 12:10:25;;;;;;;3.93;3.67;;;2.20;99.90;;;;;;5052945;28;20609;-66
2023/01/26 12:12:58;;;;;;;3.30;3.10;;;2.30;99.90;;;;;;5052952;28;20207;-66
2023/01/26 12:15:31;;;;;;;3.83;3.63;;;2.30;99.90;;;;;;5054989;28;20219;-65
2023/01/26 12:18:01;;;;;;;3.40;3.20;;;2.30;99.90;;;;;;5055932;28;20219;-66
2023/01/26 12:20:38;;;;;;;4.00;3.70;;;2.20;99.90;;;;;;5054023;28;20210;-66
2023/01/26 12:23:09;;;;;;;4.23;3.93;;;2.10;99.90;;;;;;5052519;28;20723;-65
2023/01/26 12:25:39;;;;;;;3.70;3.50;;;2.00;99.90;;;;;;5051015;28;20204;-65
2023/01/26 12:28:14;;;;;;;3.60;3.40;;;2.10;99.90;;;;;;5052152;28;20214;-65
2023/01/26 12:30:49;;;;;;;3.63;3.43;;;2.00;99.90;;;;;;5052879;28;20211;-67
2023/01/26 12:33:16;;;;;;;3.10;2.90;;;2.00;99.90;;;;;;5052604;28;20202;-66
2023/01/26 12:36:06;;;;;;;3.77;3.47;;;2.10;99.90;;;;;;5051527;28;20207;-67
2023/01/26 12:38:46;;;;;;;3.57;3.37;;;2.00;99.90;;;;;;5051262;28;20218;-67
2023/01/26 12:41:19;;;;;;;3.20;3.00;;;2.00;99.90;;;;;;5052318;28;20232;-66
2023/01/26 12:44:01;;;;;;;3.53;3.33;;;2.00;99.90;;;;;;5051390;28;20230;-66
2023/01/26 12:46:31;;;;;;;3.57;3.37;;;2.00;99.90;;;;;;5061174;28;20218;-66
2023/01/26 12:49:03;;;;;;;4.10;3.80;;;2.00;99.90;;;;;;5065181;28;20195;-66
2023/01/26 12:51:36;;;;;;;3.27;3.07;;;2.10;99.90;;;;;;5052515;28;20238;-66
2023/01/26 12:54:08;;;;;;;3.60;3.30;;;2.20;99.90;;;;;;5053929;28;20204;-65
2023/01/26 12:56:42;;;;;;;3.37;3.17;;;2.30;99.90;;;;;;5059392;28;20294;-74
2023/01/26 12:59:17;;;;;;;3.80;3.60;;;2.40;99.90;;;;;;5055727;28;20752;-68
2023/01/26 13:01:44;;;;;;;3.43;3.23;;;2.40;99.90;;;;;;5055067;28;20330;-67
2023/01/26 13:04:13;;;;;;;3.13;2.93;;;2.40;99.90;;;;;;5055285;28;20749;-66
2023/01/26 13:06:42;;;;;;;3.03;2.83;;;2.30;99.90;;;;;;5054996;28;20207;-65
2023/01/26 13:09:21;;;;;;;3.87;3.57;;;2.30;99.90;;;;;;5054967;28;20674;-66
2023/01/26 13:11:50;;;;;;;3.43;3.23;;;2.30;99.90;;;;;;5054726;28;20771;-66
2023/01/26 13:14:36;;;;;;;3.47;3.27;;;2.20;99.90;;;;;;5054892;28;20208;-66
2023/01/26 13:17:41;;;;;;;3.30;3.10;;;2.30;99.90;;;;;;5054509;28;20304;-65
2023/01/26 13:20:28;;;;;;;3.10;2.90;;;2.30;99.90;;;;;;5054725;28;20625;-66
2023/01/26 13:22:57;;;;;;;2.80;2.70;;;2.20;99.90;;;;;;5054390;28;20227;-67
2023/01/26 13:25:31;;;;;;;2.67;2.57;;;2.20;99.90;;;;;;5054165;28;20207;-66
2023/01/26 13:28:00;;;;;;;3.50;3.30;;;2.30;99.90;;;;;;5054619;28;20200;-66
2023/01/26 13:30:34;;;;;;;3.30;3.10;;;2.10;99.90;;;;;;5054226;28;20204;-66
2023/01/26 13:33:22;;;;;;;3.23;3.03;;;2.10;99.90;;;;;;5054658;28;20272;-67
2023/01/26 13:35:52;;;;;;;3.67;3.47;;;2.10;99.90;;;;;;5053689;28;20225;-66
2023/01/26 13:38:28;;;;;;;3.40;3.20;;;2.00;99.90;;;;;;5054630;28;20212;-67
2023/01/26 13:40:55;;;;;;;3.10;2.90;;;2.00;99.90;;;;;;5054643;28;20224;-67
2023/01/26 13:43:28;;;;;;;3.53;3.33;;;2.00;99.90;;;;;;5053551;28;20227;-67
2023/01/26 13:46:07;;;;;;;3.37;3.17;;;2.10;99.90;;;;;;5054167;28;20215;-67
2023/01/26 13:48:44;;;;;;;3.50;3.30;;;2.10;99.90;;;;;;5054211;28;20208;-66
2023/01/26 13:51:15;;;;;;;3.20;3.00;;;2.20;99.90;;;;;;5053992;28;20263;-67
2023/01/26 13:53:48;;;;;;;3.60;3.40;;;2.30;99.90;;;;;;5054475;28;20279;-65
2023/01/26 13:56:26;;;;;;;3.43;3.23;;;2.20;99.90;;;;;;5054114;28;20689;-66
2023/01/26 13:58:53;;;;;;;3.23;3.03;;;2.20;99.90;;;;;;5055049;28;20208;-68